sensor_id;sensor_type;location;lat;lon;timestamp;temperature;humidity
10660;DHT22;5378;53.206;13.316;2022-08-06T00:02:30;16.40;99.90
10660;DHT22;5378;53.206;13.316;2022-08-06T00:05:17;16.40;99.90
10660;DHT22;5378;53.206;13.316;2022-08-06T00:08:04;16.50;99.90
10660;DHT22;5378;53.206;13.316;2022-08-06T00:10:51;16.40;99.90
10660;DHT22;5378;53.206;13.316;2022-08-06T00:13:38;16.50;99.90
10660;DHT22;5378;53.206;13.316;2022-08-06T00:16:26;16.40;99.90
10660;DHT22;5378;53.206;13.316;2022-08-06T00:19:14;16.40;99.90
10660;DHT22;5378;53.206;13.316;2022-08-06T00:22:01;16.30;99.90
10660;DHT22;5378;53.206;13.316;2022-08-06T00:24:48;16.30;99.90
10660;DHT22;5378;53.206;13.316;2022-08-06T00:27:35;16.20;99.90
10660;DHT22;5378;53.206;13.316;2022-08-06T00:30:22;16.20;99.90
10660;DHT22;5378;53.206;13.316;2022-08-06T00:33:10;16.10;99.90
10660;DHT22;5378;53.206;13.316;2022-08-06T00:35:57;16.10;99.90
10660;DHT22;5378;53.206;13.316;2022-08-06T00:38:44;16.20;99.90
10660;DHT22;5378;53.206;13.316;2022-08-06T00:41:32;16.20;99.90
10660;DHT22;5378;53.206;13.316;2022-08-06T00:44:19;16.20;99.90
10660;DHT22;5378;53.206;13.316;2022-08-06T00:47:06;16.20;99.90
10660;DHT22;5378;53.206;13.316;2022-08-06T00:49:54;16.10;99.90
10660;DHT22;5378;53.206;13.316;2022-08-06T00:52:42;16.00;99.90
10660;DHT22;5378;53.206;13.316;2022-08-06T00:55:30;16.00;99.90
10660;DHT22;5378;53.206;13.316;2022-08-06T00:58:17;15.80;99.90
10660;DHT22;5378;53.206;13.316;2022-08-06T01:01:04;15.80;99.90
10660;DHT22;5378;53.206;13.316;2022-08-06T01:03:51;15.80;99.90
10660;DHT22;5378;53.206;13.316;2022-08-06T01:06:40;15.80;99.90
10660;DHT22;5378;53.206;13.316;2022-08-06T01:09:27;15.80;99.90
10660;DHT22;5378;53.206;13.316;2022-08-06T01:12:14;15.70;99.90
10660;DHT22;5378;53.206;13.316;2022-08-06T01:15:03;15.70;99.90
10660;DHT22;5378;53.206;13.316;2022-08-06T01:17:57;15.60;99.90
10660;DHT22;5378;53.206;13.316;2022-08-06T01:20:53;15.50;99.90
10660;DHT22;5378;53.206;13.316;2022-08-06T01:23:57;15.50;99.90
10660;DHT22;5378;53.206;13.316;2022-08-06T01:26:51;15.50;99.90
10660;DHT22;5378;53.206;13.316;2022-08-06T01:29:44;15.50;99.90
10660;DHT22;5378;53.206;13.316;2022-08-06T01:32:38;15.50;99.90
10660;DHT22;5378;53.206;13.316;2022-08-06T01:35:29;15.40;99.90
10660;DHT22;5378;53.206;13.316;2022-08-06T01:38:22;15.40;99.90
10660;DHT22;5378;53.206;13.316;2022-08-06T01:41:13;15.30;99.90
10660;DHT22;5378;53.206;13.316;2022-08-06T01:44:27;15.30;99.90
10660;DHT22;5378;53.206;13.316;2022-08-06T01:47:18;15.30;99.90
10660;DHT22;5378;53.206;13.316;2022-08-06T01:50:08;15.20;99.90
10660;DHT22;5378;53.206;13.316;2022-08-06T01:52:57;15.20;99.90
10660;DHT22;5378;53.206;13.316;2022-08-06T01:55:48;15.10;99.90
10660;DHT22;5378;53.206;13.316;2022-08-06T01:58:40;15.10;99.90
10660;DHT22;5378;53.206;13.316;2022-08-06T02:01:30;15.10;99.90
10660;DHT22;5378;53.206;13.316;2022-08-06T02:04:19;15.10;99.90
10660;DHT22;5378;53.206;13.316;2022-08-06T02:07:09;15.00;99.90
10660;DHT22;5378;53.206;13.316;2022-08-06T02:09:58;15.00;99.90
10660;DHT22;5378;53.206;13.316;2022-08-06T02:12:46;14.90;99.90
10660;DHT22;5378;53.206;13.316;2022-08-06T02:15:36;15.00;99.90
10660;DHT22;5378;53.206;13.316;2022-08-06T02:18:24;14.90;99.90
10660;DHT22;5378;53.206;13.316;2022-08-06T02:21:18;14.90;99.90
10660;DHT22;5378;53.206;13.316;2022-08-06T02:24:08;14.80;99.90
10660;DHT22;5378;53.206;13.316;2022-08-06T02:26:56;14.80;99.90
10660;DHT22;5378;53.206;13.316;2022-08-06T02:29:45;14.80;99.90
10660;DHT22;5378;53.206;13.316;2022-08-06T02:32:34;14.70;99.90
10660;DHT22;5378;53.206;13.316;2022-08-06T02:35:21;14.70;99.90
10660;DHT22;5378;53.206;13.316;2022-08-06T02:38:13;14.70;99.90
10660;DHT22;5378;53.206;13.316;2022-08-06T02:41:11;14.70;99.90
10660;DHT22;5378;53.206;13.316;2022-08-06T02:44:06;14.60;99.90
10660;DHT22;5378;53.206;13.316;2022-08-06T02:46:59;14.70;99.90
10660;DHT22;5378;53.206;13.316;2022-08-06T02:49:51;14.70;99.90
10660;DHT22;5378;53.206;13.316;2022-08-06T02:52:41;14.60;99.90
10660;DHT22;5378;53.206;13.316;2022-08-06T02:55:32;14.70;99.90
10660;DHT22;5378;53.206;13.316;2022-08-06T02:58:26;14.70;99.90
10660;DHT22;5378;53.206;13.316;2022-08-06T03:01:18;14.70;99.90
10660;DHT22;5378;53.206;13.316;2022-08-06T03:04:07;14.70;99.90
10660;DHT22;5378;53.206;13.316;2022-08-06T03:06:56;14.60;99.90
10660;DHT22;5378;53.206;13.316;2022-08-06T03:09:47;14.70;99.90
10660;DHT22;5378;53.206;13.316;2022-08-06T03:12:37;14.70;99.90
10660;DHT22;5378;53.206;13.316;2022-08-06T03:15:25;14.70;99.90
10660;DHT22;5378;53.206;13.316;2022-08-06T03:18:15;14.70;99.90
10660;DHT22;5378;53.206;13.316;2022-08-06T03:21:03;14.60;99.90
10660;DHT22;5378;53.206;13.316;2022-08-06T03:23:51;14.60;99.90
10660;DHT22;5378;53.206;13.316;2022-08-06T03:26:39;14.70;99.90
10660;DHT22;5378;53.206;13.316;2022-08-06T03:29:29;14.50;99.90
10660;DHT22;5378;53.206;13.316;2022-08-06T03:32:16;14.50;99.90
10660;DHT22;5378;53.206;13.316;2022-08-06T03:35:05;14.40;99.90
10660;DHT22;5378;53.206;13.316;2022-08-06T03:37:53;14.40;99.90
10660;DHT22;5378;53.206;13.316;2022-08-06T03:40:43;14.40;99.90
10660;DHT22;5378;53.206;13.316;2022-08-06T03:43:30;14.40;99.90
10660;DHT22;5378;53.206;13.316;2022-08-06T03:46:21;14.40;99.90
10660;DHT22;5378;53.206;13.316;2022-08-06T03:49:14;14.40;99.90
10660;DHT22;5378;53.206;13.316;2022-08-06T03:52:05;14.40;99.90
10660;DHT22;5378;53.206;13.316;2022-08-06T03:54:55;14.50;99.90
10660;DHT22;5378;53.206;13.316;2022-08-06T03:57:47;14.50;99.90
10660;DHT22;5378;53.206;13.316;2022-08-06T04:00:39;14.50;99.90
10660;DHT22;5378;53.206;13.316;2022-08-06T04:03:28;14.50;99.90
10660;DHT22;5378;53.206;13.316;2022-08-06T04:06:17;14.50;99.90
10660;DHT22;5378;53.206;13.316;2022-08-06T04:09:06;14.50;99.90
10660;DHT22;5378;53.206;13.316;2022-08-06T04:11:54;14.50;99.90
10660;DHT22;5378;53.206;13.316;2022-08-06T04:14:41;14.70;99.90
10660;DHT22;5378;53.206;13.316;2022-08-06T04:17:29;14.80;99.90
10660;DHT22;5378;53.206;13.316;2022-08-06T04:20:21;15.20;99.90
10660;DHT22;5378;53.206;13.316;2022-08-06T04:23:11;15.60;99.90
10660;DHT22;5378;53.206;13.316;2022-08-06T04:26:03;15.70;99.90
10660;DHT22;5378;53.206;13.316;2022-08-06T04:28:53;15.80;99.90
10660;DHT22;5378;53.206;13.316;2022-08-06T04:31:44;15.90;99.90
10660;DHT22;5378;53.206;13.316;2022-08-06T04:34:32;15.80;99.90
10660;DHT22;5378;53.206;13.316;2022-08-06T04:37:21;15.60;99.90
10660;DHT22;5378;53.206;13.316;2022-08-06T04:40:10;15.60;99.90
10660;DHT22;5378;53.206;13.316;2022-08-06T04:42:58;15.50;99.90
10660;DHT22;5378;53.206;13.316;2022-08-06T04:45:45;15.70;99.90
10660;DHT22;5378;53.206;13.316;2022-08-06T04:48:33;15.80;99.90
10660;DHT22;5378;53.206;13.316;2022-08-06T04:51:22;16.80;99.90
10660;DHT22;5378;53.206;13.316;2022-08-06T04:54:10;18.20;99.90
10660;DHT22;5378;53.206;13.316;2022-08-06T04:56:57;18.60;99.90
10660;DHT22;5378;53.206;13.316;2022-08-06T04:59:44;19.60;99.90
10660;DHT22;5378;53.206;13.316;2022-08-06T05:02:32;20.30;99.90
10660;DHT22;5378;53.206;13.316;2022-08-06T05:05:20;21.80;99.90
10660;DHT22;5378;53.206;13.316;2022-08-06T05:08:08;23.50;99.90
10660;DHT22;5378;53.206;13.316;2022-08-06T05:11:08;24.90;99.90
10660;DHT22;5378;53.206;13.316;2022-08-06T05:13:58;26.00;99.90
10660;DHT22;5378;53.206;13.316;2022-08-06T05:16:48;26.80;99.90
10660;DHT22;5378;53.206;13.316;2022-08-06T05:19:41;27.20;99.90
10660;DHT22;5378;53.206;13.316;2022-08-06T05:22:31;27.40;99.90
10660;DHT22;5378;53.206;13.316;2022-08-06T05:25:20;27.30;99.90
10660;DHT22;5378;53.206;13.316;2022-08-06T05:28:09;27.70;99.90
10660;DHT22;5378;53.206;13.316;2022-08-06T05:30:56;28.10;99.20
10660;DHT22;5378;53.206;13.316;2022-08-06T05:33:44;28.20;98.50
10660;DHT22;5378;53.206;13.316;2022-08-06T05:36:31;28.50;97.60
10660;DHT22;5378;53.206;13.316;2022-08-06T05:39:18;28.60;97.30
10660;DHT22;5378;53.206;13.316;2022-08-06T05:42:06;28.70;96.70
10660;DHT22;5378;53.206;13.316;2022-08-06T05:44:54;28.90;97.00
10660;DHT22;5378;53.206;13.316;2022-08-06T05:47:42;29.30;95.60
10660;DHT22;5378;53.206;13.316;2022-08-06T05:50:39;29.60;95.20
10660;DHT22;5378;53.206;13.316;2022-08-06T05:53:32;29.30;95.40
10660;DHT22;5378;53.206;13.316;2022-08-06T05:56:25;29.40;94.60
10660;DHT22;5378;53.206;13.316;2022-08-06T05:59:20;29.80;94.50
10660;DHT22;5378;53.206;13.316;2022-08-06T06:02:10;29.90;94.00
10660;DHT22;5378;53.206;13.316;2022-08-06T06:04:59;30.30;93.30
10660;DHT22;5378;53.206;13.316;2022-08-06T06:07:48;30.80;93.30
10660;DHT22;5378;53.206;13.316;2022-08-06T06:10:37;31.20;92.50
10660;DHT22;5378;53.206;13.316;2022-08-06T06:13:25;31.60;91.20
10660;DHT22;5378;53.206;13.316;2022-08-06T06:16:29;31.60;90.90
10660;DHT22;5378;53.206;13.316;2022-08-06T06:19:25;31.50;91.30
10660;DHT22;5378;53.206;13.316;2022-08-06T06:22:20;31.10;90.50
10660;DHT22;5378;53.206;13.316;2022-08-06T06:25:10;31.20;90.80
10660;DHT22;5378;53.206;13.316;2022-08-06T06:28:02;31.30;90.90
10660;DHT22;5378;53.206;13.316;2022-08-06T06:30:56;31.60;90.00
10660;DHT22;5378;53.206;13.316;2022-08-06T06:33:49;31.60;89.60
10660;DHT22;5378;53.206;13.316;2022-08-06T06:36:47;31.70;89.20
10660;DHT22;5378;53.206;13.316;2022-08-06T06:39:43;32.00;87.80
10660;DHT22;5378;53.206;13.316;2022-08-06T06:42:37;32.00;87.60
10660;DHT22;5378;53.206;13.316;2022-08-06T06:45:30;32.40;87.00
10660;DHT22;5378;53.206;13.316;2022-08-06T06:48:23;32.70;86.80
10660;DHT22;5378;53.206;13.316;2022-08-06T06:51:16;33.20;86.20
10660;DHT22;5378;53.206;13.316;2022-08-06T06:54:16;33.40;81.50
10660;DHT22;5378;53.206;13.316;2022-08-06T06:57:06;32.30;84.40
10660;DHT22;5378;53.206;13.316;2022-08-06T06:59:55;32.00;84.80
10660;DHT22;5378;53.206;13.316;2022-08-06T07:02:45;31.10;86.40
10660;DHT22;5378;53.206;13.316;2022-08-06T07:05:35;31.30;87.00
10660;DHT22;5378;53.206;13.316;2022-08-06T07:08:25;30.40;86.40
10660;DHT22;5378;53.206;13.316;2022-08-06T07:11:17;29.40;90.30
10660;DHT22;5378;53.206;13.316;2022-08-06T07:14:06;28.50;87.10
10660;DHT22;5378;53.206;13.316;2022-08-06T07:16:54;30.20;87.60
10660;DHT22;5378;53.206;13.316;2022-08-06T07:19:42;30.00;88.00
10660;DHT22;5378;53.206;13.316;2022-08-06T07:22:30;30.80;84.30
10660;DHT22;5378;53.206;13.316;2022-08-06T07:25:18;29.70;86.70
10660;DHT22;5378;53.206;13.316;2022-08-06T07:28:08;28.50;89.20
10660;DHT22;5378;53.206;13.316;2022-08-06T07:30:58;27.60;90.20
10660;DHT22;5378;53.206;13.316;2022-08-06T07:33:46;26.20;92.40
10660;DHT22;5378;53.206;13.316;2022-08-06T07:36:39;27.30;92.50
10660;DHT22;5378;53.206;13.316;2022-08-06T07:39:31;28.20;91.60
10660;DHT22;5378;53.206;13.316;2022-08-06T07:42:20;29.90;89.60
10660;DHT22;5378;53.206;13.316;2022-08-06T07:45:12;31.10;87.10
10660;DHT22;5378;53.206;13.316;2022-08-06T07:48:04;31.80;82.30
10660;DHT22;5378;53.206;13.316;2022-08-06T07:50:53;31.30;83.40
10660;DHT22;5378;53.206;13.316;2022-08-06T07:53:42;32.30;82.90
10660;DHT22;5378;53.206;13.316;2022-08-06T07:56:29;33.50;79.80
10660;DHT22;5378;53.206;13.316;2022-08-06T07:59:18;34.30;76.40
10660;DHT22;5378;53.206;13.316;2022-08-06T08:02:09;32.80;76.40
10660;DHT22;5378;53.206;13.316;2022-08-06T08:04:57;30.00;81.50
10660;DHT22;5378;53.206;13.316;2022-08-06T08:08:03;27.20;85.90
10660;DHT22;5378;53.206;13.316;2022-08-06T08:10:52;25.20;90.40
10660;DHT22;5378;53.206;13.316;2022-08-06T08:13:39;23.90;91.70
10660;DHT22;5378;53.206;13.316;2022-08-06T08:16:27;23.60;93.70
10660;DHT22;5378;53.206;13.316;2022-08-06T08:19:22;25.70;93.00
10660;DHT22;5378;53.206;13.316;2022-08-06T08:22:11;28.40;89.10
10660;DHT22;5378;53.206;13.316;2022-08-06T08:24:59;30.00;84.40
10660;DHT22;5378;53.206;13.316;2022-08-06T08:27:46;29.80;79.40
10660;DHT22;5378;53.206;13.316;2022-08-06T08:30:33;28.40;84.10
10660;DHT22;5378;53.206;13.316;2022-08-06T08:33:23;27.30;89.00
10660;DHT22;5378;53.206;13.316;2022-08-06T08:36:11;28.40;86.40
10660;DHT22;5378;53.206;13.316;2022-08-06T08:38:58;30.10;82.20
10660;DHT22;5378;53.206;13.316;2022-08-06T08:41:50;31.70;82.10
10660;DHT22;5378;53.206;13.316;2022-08-06T08:44:38;32.10;77.30
10660;DHT22;5378;53.206;13.316;2022-08-06T08:47:28;30.30;77.80
10660;DHT22;5378;53.206;13.316;2022-08-06T08:50:18;28.40;82.40
10660;DHT22;5378;53.206;13.316;2022-08-06T08:53:11;27.30;86.60
10660;DHT22;5378;53.206;13.316;2022-08-06T08:56:01;28.00;85.10
10660;DHT22;5378;53.206;13.316;2022-08-06T08:58:49;28.20;81.80
10660;DHT22;5378;53.206;13.316;2022-08-06T09:01:39;27.40;81.20
10660;DHT22;5378;53.206;13.316;2022-08-06T09:04:27;26.10;86.70
10660;DHT22;5378;53.206;13.316;2022-08-06T09:07:14;25.20;89.60
10660;DHT22;5378;53.206;13.316;2022-08-06T09:10:04;24.60;90.50
10660;DHT22;5378;53.206;13.316;2022-08-06T09:12:52;24.70;92.40
10660;DHT22;5378;53.206;13.316;2022-08-06T09:15:40;25.20;90.50
10660;DHT22;5378;53.206;13.316;2022-08-06T09:18:27;24.90;90.60
10660;DHT22;5378;53.206;13.316;2022-08-06T09:21:15;24.30;91.40
10660;DHT22;5378;53.206;13.316;2022-08-06T09:24:03;23.50;92.10
10660;DHT22;5378;53.206;13.316;2022-08-06T09:27:06;23.40;94.00
10660;DHT22;5378;53.206;13.316;2022-08-06T09:29:55;23.80;92.00
10660;DHT22;5378;53.206;13.316;2022-08-06T09:32:45;23.40;92.50
10660;DHT22;5378;53.206;13.316;2022-08-06T09:35:32;23.40;91.70
10660;DHT22;5378;53.206;13.316;2022-08-06T09:38:19;23.40;92.90
10660;DHT22;5378;53.206;13.316;2022-08-06T09:41:08;23.40;92.70
10660;DHT22;5378;53.206;13.316;2022-08-06T09:43:57;23.40;92.70
10660;DHT22;5378;53.206;13.316;2022-08-06T09:46:46;23.40;92.50
10660;DHT22;5378;53.206;13.316;2022-08-06T09:49:43;23.20;91.70
10660;DHT22;5378;53.206;13.316;2022-08-06T09:52:32;22.80;92.00
10660;DHT22;5378;53.206;13.316;2022-08-06T09:55:28;22.30;93.70
10660;DHT22;5378;53.206;13.316;2022-08-06T09:58:30;22.00;94.20
10660;DHT22;5378;53.206;13.316;2022-08-06T10:01:21;22.60;95.10
10660;DHT22;5378;53.206;13.316;2022-08-06T10:04:12;23.40;94.80
10660;DHT22;5378;53.206;13.316;2022-08-06T10:07:02;24.10;94.30
10660;DHT22;5378;53.206;13.316;2022-08-06T10:09:51;24.40;92.10
10660;DHT22;5378;53.206;13.316;2022-08-06T10:12:39;24.30;91.50
10660;DHT22;5378;53.206;13.316;2022-08-06T10:15:28;23.80;90.60
10660;DHT22;5378;53.206;13.316;2022-08-06T10:18:37;23.30;92.60
10660;DHT22;5378;53.206;13.316;2022-08-06T10:21:26;23.00;94.10
10660;DHT22;5378;53.206;13.316;2022-08-06T10:24:14;23.00;93.80
10660;DHT22;5378;53.206;13.316;2022-08-06T10:27:09;23.00;93.00
10660;DHT22;5378;53.206;13.316;2022-08-06T10:30:01;22.80;93.10
10660;DHT22;5378;53.206;13.316;2022-08-06T10:32:52;22.50;92.40
10660;DHT22;5378;53.206;13.316;2022-08-06T10:35:42;22.40;91.70
10660;DHT22;5378;53.206;13.316;2022-08-06T10:38:34;22.50;91.80
10660;DHT22;5378;53.206;13.316;2022-08-06T10:41:21;22.60;91.90
10660;DHT22;5378;53.206;13.316;2022-08-06T10:44:10;22.80;93.40
10660;DHT22;5378;53.206;13.316;2022-08-06T10:46:58;22.90;92.50
10660;DHT22;5378;53.206;13.316;2022-08-06T10:49:46;22.80;91.70
10660;DHT22;5378;53.206;13.316;2022-08-06T10:52:35;22.50;91.50
10660;DHT22;5378;53.206;13.316;2022-08-06T10:55:23;22.10;92.20
10660;DHT22;5378;53.206;13.316;2022-08-06T10:58:10;22.10;93.40
10660;DHT22;5378;53.206;13.316;2022-08-06T11:00:59;22.20;93.40
10660;DHT22;5378;53.206;13.316;2022-08-06T11:03:56;22.50;92.20
10660;DHT22;5378;53.206;13.316;2022-08-06T11:10:26;22.10;91.80
10660;DHT22;5378;53.206;13.316;2022-08-06T11:13:25;21.80;92.30
10660;DHT22;5378;53.206;13.316;2022-08-06T11:16:22;21.90;92.20
10660;DHT22;5378;53.206;13.316;2022-08-06T11:19:11;22.10;92.20
10660;DHT22;5378;53.206;13.316;2022-08-06T11:21:59;22.30;91.50
10660;DHT22;5378;53.206;13.316;2022-08-06T11:24:49;22.30;91.80
10660;DHT22;5378;53.206;13.316;2022-08-06T11:27:50;22.20;93.70
10660;DHT22;5378;53.206;13.316;2022-08-06T11:30:41;22.50;93.00
10660;DHT22;5378;53.206;13.316;2022-08-06T11:33:59;22.70;93.00
10660;DHT22;5378;53.206;13.316;2022-08-06T11:36:54;23.10;92.70
10660;DHT22;5378;53.206;13.316;2022-08-06T11:40:06;23.00;92.00
10660;DHT22;5378;53.206;13.316;2022-08-06T11:42:55;22.90;91.20
10660;DHT22;5378;53.206;13.316;2022-08-06T11:49:23;22.50;91.90
10660;DHT22;5378;53.206;13.316;2022-08-06T11:52:38;22.50;92.10
10660;DHT22;5378;53.206;13.316;2022-08-06T11:55:25;22.40;92.20
10660;DHT22;5378;53.206;13.316;2022-08-06T11:58:20;22.20;91.60
10660;DHT22;5378;53.206;13.316;2022-08-06T12:01:08;21.90;92.20
10660;DHT22;5378;53.206;13.316;2022-08-06T12:03:56;21.70;92.60
10660;DHT22;5378;53.206;13.316;2022-08-06T12:06:43;21.70;94.40
10660;DHT22;5378;53.206;13.316;2022-08-06T12:09:33;21.90;92.70
10660;DHT22;5378;53.206;13.316;2022-08-06T12:12:36;22.00;92.00
10660;DHT22;5378;53.206;13.316;2022-08-06T12:15:37;22.00;92.20
10660;DHT22;5378;53.206;13.316;2022-08-06T12:18:24;21.90;92.60
10660;DHT22;5378;53.206;13.316;2022-08-06T12:21:11;21.70;93.10
10660;DHT22;5378;53.206;13.316;2022-08-06T12:23:59;21.50;93.30
10660;DHT22;5378;53.206;13.316;2022-08-06T12:26:46;21.30;92.10
10660;DHT22;5378;53.206;13.316;2022-08-06T12:29:34;21.40;92.40
10660;DHT22;5378;53.206;13.316;2022-08-06T12:32:24;21.40;91.20
10660;DHT22;5378;53.206;13.316;2022-08-06T12:35:12;21.40;92.20
10660;DHT22;5378;53.206;13.316;2022-08-06T12:37:59;21.50;92.70
10660;DHT22;5378;53.206;13.316;2022-08-06T12:40:52;22.00;91.50
10660;DHT22;5378;53.206;13.316;2022-08-06T12:43:42;22.20;90.80
10660;DHT22;5378;53.206;13.316;2022-08-06T12:46:32;22.20;91.00
10660;DHT22;5378;53.206;13.316;2022-08-06T12:49:30;22.10;91.90
10660;DHT22;5378;53.206;13.316;2022-08-06T12:52:20;22.00;92.40
10660;DHT22;5378;53.206;13.316;2022-08-06T12:55:16;21.80;91.40
10660;DHT22;5378;53.206;13.316;2022-08-06T12:58:04;21.70;92.40
10660;DHT22;5378;53.206;13.316;2022-08-06T13:00:56;21.70;92.10
10660;DHT22;5378;53.206;13.316;2022-08-06T13:03:45;21.60;92.20
10660;DHT22;5378;53.206;13.316;2022-08-06T13:06:36;21.60;92.50
10660;DHT22;5378;53.206;13.316;2022-08-06T13:09:28;21.60;92.40
10660;DHT22;5378;53.206;13.316;2022-08-06T13:12:20;21.50;91.40
10660;DHT22;5378;53.206;13.316;2022-08-06T13:15:11;21.60;92.10
10660;DHT22;5378;53.206;13.316;2022-08-06T13:18:04;21.70;92.50
10660;DHT22;5378;53.206;13.316;2022-08-06T13:20:51;21.90;92.20
10660;DHT22;5378;53.206;13.316;2022-08-06T13:23:45;22.00;89.80
10660;DHT22;5378;53.206;13.316;2022-08-06T13:26:34;22.00;92.50
10660;DHT22;5378;53.206;13.316;2022-08-06T13:29:33;22.00;91.70
10660;DHT22;5378;53.206;13.316;2022-08-06T13:32:23;21.80;90.60
10660;DHT22;5378;53.206;13.316;2022-08-06T13:35:11;21.70;90.40
10660;DHT22;5378;53.206;13.316;2022-08-06T13:37:58;21.90;91.40
10660;DHT22;5378;53.206;13.316;2022-08-06T13:40:48;22.00;91.00
10660;DHT22;5378;53.206;13.316;2022-08-06T13:43:37;22.00;91.60
10660;DHT22;5378;53.206;13.316;2022-08-06T13:46:26;22.00;91.10
10660;DHT22;5378;53.206;13.316;2022-08-06T13:49:14;21.90;90.10
10660;DHT22;5378;53.206;13.316;2022-08-06T13:52:02;21.80;90.20
10660;DHT22;5378;53.206;13.316;2022-08-06T13:54:50;21.80;91.10
10660;DHT22;5378;53.206;13.316;2022-08-06T13:57:38;21.80;90.00
10660;DHT22;5378;53.206;13.316;2022-08-06T14:00:25;21.90;86.40
10660;DHT22;5378;53.206;13.316;2022-08-06T14:03:13;22.10;87.90
10660;DHT22;5378;53.206;13.316;2022-08-06T14:06:00;22.30;87.00
10660;DHT22;5378;53.206;13.316;2022-08-06T14:08:47;22.40;89.50
10660;DHT22;5378;53.206;13.316;2022-08-06T14:11:34;22.50;90.20
10660;DHT22;5378;53.206;13.316;2022-08-06T14:14:24;22.60;89.00
10660;DHT22;5378;53.206;13.316;2022-08-06T14:17:11;22.70;88.00
10660;DHT22;5378;53.206;13.316;2022-08-06T14:19:58;22.90;87.40
10660;DHT22;5378;53.206;13.316;2022-08-06T14:22:45;23.20;90.80
10660;DHT22;5378;53.206;13.316;2022-08-06T14:25:32;23.50;89.40
10660;DHT22;5378;53.206;13.316;2022-08-06T14:28:20;23.50;90.00
10660;DHT22;5378;53.206;13.316;2022-08-06T14:31:09;23.50;86.70
10660;DHT22;5378;53.206;13.316;2022-08-06T14:33:56;23.20;88.00
10660;DHT22;5378;53.206;13.316;2022-08-06T14:36:44;23.00;87.60
10660;DHT22;5378;53.206;13.316;2022-08-06T14:39:31;23.00;87.80
10660;DHT22;5378;53.206;13.316;2022-08-06T14:42:19;23.20;87.30
10660;DHT22;5378;53.206;13.316;2022-08-06T14:45:24;23.30;87.60
10660;DHT22;5378;53.206;13.316;2022-08-06T14:48:12;23.50;90.10
10660;DHT22;5378;53.206;13.316;2022-08-06T14:51:00;23.50;87.40
10660;DHT22;5378;53.206;13.316;2022-08-06T14:53:47;23.50;84.00
10660;DHT22;5378;53.206;13.316;2022-08-06T14:56:34;23.10;85.40
10660;DHT22;5378;53.206;13.316;2022-08-06T14:59:23;22.80;84.80
10660;DHT22;5378;53.206;13.316;2022-08-06T15:02:11;22.60;85.40
10660;DHT22;5378;53.206;13.316;2022-08-06T15:05:00;22.60;84.40
10660;DHT22;5378;53.206;13.316;2022-08-06T15:07:47;22.70;83.30
10660;DHT22;5378;53.206;13.316;2022-08-06T15:10:34;22.70;82.90
10660;DHT22;5378;53.206;13.316;2022-08-06T15:13:21;22.80;83.60
10660;DHT22;5378;53.206;13.316;2022-08-06T15:16:08;22.90;83.50
10660;DHT22;5378;53.206;13.316;2022-08-06T15:18:56;23.00;83.30
10660;DHT22;5378;53.206;13.316;2022-08-06T15:22:01;23.20;83.30
10660;DHT22;5378;53.206;13.316;2022-08-06T15:24:48;23.40;82.60
10660;DHT22;5378;53.206;13.316;2022-08-06T15:27:35;23.40;83.10
10660;DHT22;5378;53.206;13.316;2022-08-06T15:30:22;23.40;84.80
10660;DHT22;5378;53.206;13.316;2022-08-06T15:33:10;23.40;83.10
10660;DHT22;5378;53.206;13.316;2022-08-06T15:35:57;23.50;83.50
10660;DHT22;5378;53.206;13.316;2022-08-06T15:38:45;23.50;83.80
10660;DHT22;5378;53.206;13.316;2022-08-06T15:41:32;23.50;82.20
10660;DHT22;5378;53.206;13.316;2022-08-06T15:44:20;23.30;81.60
10660;DHT22;5378;53.206;13.316;2022-08-06T15:47:08;23.10;84.00
10660;DHT22;5378;53.206;13.316;2022-08-06T15:49:55;22.80;86.00
10660;DHT22;5378;53.206;13.316;2022-08-06T15:52:42;22.70;84.90
10660;DHT22;5378;53.206;13.316;2022-08-06T15:55:31;22.50;86.40
10660;DHT22;5378;53.206;13.316;2022-08-06T15:58:18;22.40;84.70
10660;DHT22;5378;53.206;13.316;2022-08-06T16:01:05;22.20;83.70
10660;DHT22;5378;53.206;13.316;2022-08-06T16:03:52;22.00;86.60
10660;DHT22;5378;53.206;13.316;2022-08-06T16:06:39;22.00;86.00
10660;DHT22;5378;53.206;13.316;2022-08-06T16:09:26;22.00;86.10
10660;DHT22;5378;53.206;13.316;2022-08-06T16:12:15;22.10;87.40
10660;DHT22;5378;53.206;13.316;2022-08-06T16:15:02;22.10;88.40
10660;DHT22;5378;53.206;13.316;2022-08-06T16:17:49;22.10;85.70
10660;DHT22;5378;53.206;13.316;2022-08-06T16:20:37;22.00;88.70
10660;DHT22;5378;53.206;13.316;2022-08-06T16:23:25;21.90;89.40
10660;DHT22;5378;53.206;13.316;2022-08-06T16:26:12;21.80;90.00
10660;DHT22;5378;53.206;13.316;2022-08-06T16:29:02;21.70;90.10
10660;DHT22;5378;53.206;13.316;2022-08-06T16:31:50;21.70;90.00
10660;DHT22;5378;53.206;13.316;2022-08-06T16:34:37;21.60;87.70
10660;DHT22;5378;53.206;13.316;2022-08-06T16:37:24;21.60;90.50
10660;DHT22;5378;53.206;13.316;2022-08-06T16:40:11;21.50;90.20
10660;DHT22;5378;53.206;13.316;2022-08-06T16:42:58;21.40;88.90
10660;DHT22;5378;53.206;13.316;2022-08-06T16:45:47;21.50;89.80
10660;DHT22;5378;53.206;13.316;2022-08-06T16:48:34;21.50;90.50
10660;DHT22;5378;53.206;13.316;2022-08-06T16:51:21;21.50;90.40
10660;DHT22;5378;53.206;13.316;2022-08-06T16:54:09;21.40;89.10
10660;DHT22;5378;53.206;13.316;2022-08-06T16:56:56;21.40;90.60
10660;DHT22;5378;53.206;13.316;2022-08-06T16:59:43;21.30;90.80
10660;DHT22;5378;53.206;13.316;2022-08-06T17:02:31;21.20;91.40
10660;DHT22;5378;53.206;13.316;2022-08-06T17:05:25;21.00;91.30
10660;DHT22;5378;53.206;13.316;2022-08-06T17:08:12;20.90;91.40
10660;DHT22;5378;53.206;13.316;2022-08-06T17:10:59;20.90;91.00
10660;DHT22;5378;53.206;13.316;2022-08-06T17:13:46;20.80;90.50
10660;DHT22;5378;53.206;13.316;2022-08-06T17:16:35;20.80;91.50
10660;DHT22;5378;53.206;13.316;2022-08-06T17:19:23;20.70;91.80
10660;DHT22;5378;53.206;13.316;2022-08-06T17:22:10;20.60;92.60
10660;DHT22;5378;53.206;13.316;2022-08-06T17:24:59;20.50;91.60
10660;DHT22;5378;53.206;13.316;2022-08-06T17:27:46;20.50;92.70
10660;DHT22;5378;53.206;13.316;2022-08-06T17:30:34;20.30;92.90
10660;DHT22;5378;53.206;13.316;2022-08-06T17:33:21;20.30;93.40
10660;DHT22;5378;53.206;13.316;2022-08-06T17:36:10;20.20;92.20
10660;DHT22;5378;53.206;13.316;2022-08-06T17:38:57;20.10;92.70
10660;DHT22;5378;53.206;13.316;2022-08-06T17:41:44;20.00;93.20
10660;DHT22;5378;53.206;13.316;2022-08-06T17:44:31;19.90;92.90
10660;DHT22;5378;53.206;13.316;2022-08-06T17:47:19;19.90;93.70
10660;DHT22;5378;53.206;13.316;2022-08-06T17:50:06;20.00;93.40
10660;DHT22;5378;53.206;13.316;2022-08-06T17:52:55;20.10;94.10
10660;DHT22;5378;53.206;13.316;2022-08-06T17:55:42;20.20;94.00
10660;DHT22;5378;53.206;13.316;2022-08-06T17:58:32;20.30;93.30
10660;DHT22;5378;53.206;13.316;2022-08-06T18:01:20;20.50;93.40